Terminal Aerodrome Forecast
Issued by NWS

Home | Current Version | Previous Version | Text Only | Print | Product List | Glossary On
Versions: 1 2 3 4 5 6 7 8 9 10 11 12 13 14 15 16 17 18 19 20 21 22
306
FTUS43 KJKL 241224 AAB
TAFSME
TAF AMD
KSME 241224Z 2412/2512 28007KT P6SM OVC007
     FM241600 28006KT P6SM OVC010
     FM242000 26004KT P6SM BKN020
     FM242100 25004KT P6SM SCT025
     FM250200 00000KT P6SM FEW200
     FM250900 16005KT P6SM SCT250 WS020/23035KT=

USA.gov is the U.S. government's official web portal to all federal, state and local government web resources and services.